sensor_id;sensor_type;location;lat;lon;timestamp;pressure;altitude;pressure_sealevel;temperature;humidity
29417;BME280;28421;51.030;4.006;2023-08-06T00:02:12;100184.50;;;16.54;100.00
29417;BME280;28421;51.030;4.006;2023-08-06T00:04:38;100195.75;;;16.58;100.00
29417;BME280;28421;51.030;4.006;2023-08-06T00:07:04;100232.66;;;16.84;100.00
29417;BME280;28421;51.030;4.006;2023-08-06T00:09:29;100231.78;;;16.83;100.00
29417;BME280;28421;51.030;4.006;2023-08-06T00:11:55;100220.94;;;16.65;100.00
29417;BME280;28421;51.030;4.006;2023-08-06T00:14:20;100212.56;;;16.66;100.00
29417;BME280;28421;51.030;4.006;2023-08-06T00:16:46;100213.63;;;16.65;100.00
29417;BME280;28421;51.030;4.006;2023-08-06T00:19:11;100212.34;;;16.50;100.00
29417;BME280;28421;51.030;4.006;2023-08-06T00:21:37;100215.81;;;16.57;100.00
29417;BME280;28421;51.030;4.006;2023-08-06T00:24:03;100176.16;;;16.37;100.00
29417;BME280;28421;51.030;4.006;2023-08-06T00:26:28;100205.03;;;16.50;100.00
29417;BME280;28421;51.030;4.006;2023-08-06T00:28:54;100163.81;;;16.23;100.00
29417;BME280;28421;51.030;4.006;2023-08-06T00:31:19;100196.59;;;16.40;100.00
29417;BME280;28421;51.030;4.006;2023-08-06T00:33:45;100161.56;;;16.02;100.00
29417;BME280;28421;51.030;4.006;2023-08-06T00:36:10;100155.13;;;15.96;100.00
29417;BME280;28421;51.030;4.006;2023-08-06T00:38:36;100170.19;;;15.92;100.00
29417;BME280;28421;51.030;4.006;2023-08-06T00:41:01;100185.41;;;15.93;100.00
29417;BME280;28421;51.030;4.006;2023-08-06T00:43:27;100190.59;;;15.95;100.00
29417;BME280;28421;51.030;4.006;2023-08-06T00:45:52;100214.31;;;15.81;100.00
29417;BME280;28421;51.030;4.006;2023-08-06T00:48:18;100179.94;;;15.75;100.00
29417;BME280;28421;51.030;4.006;2023-08-06T00:50:44;100180.88;;;15.87;100.00
29417;BME280;28421;51.030;4.006;2023-08-06T00:53:10;100219.03;;;16.10;100.00
29417;BME280;28421;51.030;4.006;2023-08-06T00:55:35;100149.63;;;15.59;100.00
29417;BME280;28421;51.030;4.006;2023-08-06T00:58:01;100192.72;;;15.93;100.00
29417;BME280;28421;51.030;4.006;2023-08-06T01:00:28;100177.09;;;15.88;100.00
29417;BME280;28421;51.030;4.006;2023-08-06T01:02:54;100213.75;;;16.15;100.00
29417;BME280;28421;51.030;4.006;2023-08-06T01:05:20;100177.97;;;15.88;100.00
29417;BME280;28421;51.030;4.006;2023-08-06T01:07:56;100224.38;;;16.17;100.00
29417;BME280;28421;51.030;4.006;2023-08-06T01:10:40;100191.28;;;16.08;100.00
29417;BME280;28421;51.030;4.006;2023-08-06T01:13:18;100190.59;;;15.95;100.00
29417;BME280;28421;51.030;4.006;2023-08-06T01:15:49;100188.00;;;16.06;100.00
29417;BME280;28421;51.030;4.006;2023-08-06T01:18:16;100173.91;;;15.98;100.00
29417;BME280;28421;51.030;4.006;2023-08-06T01:20:42;100218.31;;;16.22;100.00
29417;BME280;28421;51.030;4.006;2023-08-06T01:23:07;100190.75;;;16.00;100.00
29417;BME280;28421;51.030;4.006;2023-08-06T01:25:34;100228.25;;;16.28;100.00
29417;BME280;28421;51.030;4.006;2023-08-06T01:28:11;100222.81;;;16.28;100.00
29417;BME280;28421;51.030;4.006;2023-08-06T01:30:42;100208.19;;;16.10;100.00
29417;BME280;28421;51.030;4.006;2023-08-06T01:33:09;100178.97;;;15.87;100.00
29417;BME280;28421;51.030;4.006;2023-08-06T01:35:38;100214.00;;;16.14;100.00
29417;BME280;28421;51.030;4.006;2023-08-06T01:38:04;100223.50;;;16.23;100.00
29417;BME280;28421;51.030;4.006;2023-08-06T01:40:30;100242.47;;;16.41;100.00
29417;BME280;28421;51.030;4.006;2023-08-06T01:42:56;100224.69;;;16.27;100.00
29417;BME280;28421;51.030;4.006;2023-08-06T01:45:21;100244.38;;;16.41;100.00
29417;BME280;28421;51.030;4.006;2023-08-06T01:47:49;100239.84;;;16.35;100.00
29417;BME280;28421;51.030;4.006;2023-08-06T01:50:14;100255.06;;;16.36;100.00
29417;BME280;28421;51.030;4.006;2023-08-06T01:52:40;100239.13;;;16.03;100.00
29417;BME280;28421;51.030;4.006;2023-08-06T01:55:05;100224.53;;;15.79;100.00
29417;BME280;28421;51.030;4.006;2023-08-06T01:57:31;100247.19;;;15.59;100.00
29417;BME280;28421;51.030;4.006;2023-08-06T01:59:57;100213.81;;;15.59;100.00
29417;BME280;28421;51.030;4.006;2023-08-06T02:02:23;100237.75;;;15.69;100.00
29417;BME280;28421;51.030;4.006;2023-08-06T02:04:49;100285.34;;;15.89;100.00
29417;BME280;28421;51.030;4.006;2023-08-06T02:07:14;100257.06;;;15.79;100.00
29417;BME280;28421;51.030;4.006;2023-08-06T02:09:40;100253.00;;;15.31;100.00
29417;BME280;28421;51.030;4.006;2023-08-06T02:12:06;100246.59;;;15.51;100.00
29417;BME280;28421;51.030;4.006;2023-08-06T02:14:32;100271.69;;;15.39;100.00
29417;BME280;28421;51.030;4.006;2023-08-06T02:16:58;100248.69;;;15.17;100.00
29417;BME280;28421;51.030;4.006;2023-08-06T02:19:24;100268.16;;;15.39;100.00
29417;BME280;28421;51.030;4.006;2023-08-06T02:21:50;100279.66;;;15.34;100.00
29417;BME280;28421;51.030;4.006;2023-08-06T02:24:15;100275.97;;;15.22;100.00
29417;BME280;28421;51.030;4.006;2023-08-06T02:26:41;100297.47;;;15.10;100.00
29417;BME280;28421;51.030;4.006;2023-08-06T02:29:06;100323.59;;;15.36;100.00
29417;BME280;28421;51.030;4.006;2023-08-06T02:31:32;100326.91;;;15.38;100.00
29417;BME280;28421;51.030;4.006;2023-08-06T02:33:57;100326.66;;;15.47;100.00
29417;BME280;28421;51.030;4.006;2023-08-06T02:36:24;100313.00;;;15.28;100.00
29417;BME280;28421;51.030;4.006;2023-08-06T02:38:50;100287.88;;;15.08;100.00
29417;BME280;28421;51.030;4.006;2023-08-06T02:41:15;100258.81;;;14.90;100.00
29417;BME280;28421;51.030;4.006;2023-08-06T02:43:41;100290.41;;;15.03;100.00
29417;BME280;28421;51.030;4.006;2023-08-06T02:46:06;100336.72;;;15.33;100.00
29417;BME280;28421;51.030;4.006;2023-08-06T02:48:33;100288.41;;;14.85;100.00
29417;BME280;28421;51.030;4.006;2023-08-06T02:50:59;100341.72;;;15.36;100.00
29417;BME280;28421;51.030;4.006;2023-08-06T02:53:26;100323.16;;;14.95;100.00
29417;BME280;28421;51.030;4.006;2023-08-06T02:55:52;100283.78;;;14.92;100.00
29417;BME280;28421;51.030;4.006;2023-08-06T02:58:23;100295.28;;;14.81;100.00
29417;BME280;28421;51.030;4.006;2023-08-06T03:01:02;100354.28;;;15.24;100.00
29417;BME280;28421;51.030;4.006;2023-08-06T03:03:31;100328.28;;;15.09;100.00
29417;BME280;28421;51.030;4.006;2023-08-06T03:05:59;100285.31;;;14.75;100.00
29417;BME280;28421;51.030;4.006;2023-08-06T03:08:37;100312.38;;;14.81;100.00
29417;BME280;28421;51.030;4.006;2023-08-06T03:11:02;100304.03;;;14.76;100.00
29417;BME280;28421;51.030;4.006;2023-08-06T03:13:28;100318.66;;;14.55;100.00
29417;BME280;28421;51.030;4.006;2023-08-06T03:15:55;100326.56;;;14.57;100.00
29417;BME280;28421;51.030;4.006;2023-08-06T03:18:21;100327.19;;;14.32;100.00
29417;BME280;28421;51.030;4.006;2023-08-06T03:20:49;100346.31;;;14.37;100.00
29417;BME280;28421;51.030;4.006;2023-08-06T03:23:15;100376.31;;;14.23;100.00
29417;BME280;28421;51.030;4.006;2023-08-06T03:25:40;100334.06;;;14.08;100.00
29417;BME280;28421;51.030;4.006;2023-08-06T03:28:06;100371.91;;;14.08;100.00
29417;BME280;28421;51.030;4.006;2023-08-06T03:30:33;100359.00;;;13.90;100.00
29417;BME280;28421;51.030;4.006;2023-08-06T03:32:59;100429.53;;;14.29;100.00
29417;BME280;28421;51.030;4.006;2023-08-06T03:35:25;100431.84;;;14.18;100.00
29417;BME280;28421;51.030;4.006;2023-08-06T03:37:52;100390.38;;;13.78;100.00
29417;BME280;28421;51.030;4.006;2023-08-06T03:40:17;100393.50;;;13.82;100.00
29417;BME280;28421;51.030;4.006;2023-08-06T03:42:43;100458.63;;;14.13;100.00
29417;BME280;28421;51.030;4.006;2023-08-06T03:45:09;100423.41;;;13.80;100.00
29417;BME280;28421;51.030;4.006;2023-08-06T03:47:36;100447.38;;;13.90;100.00
29417;BME280;28421;51.030;4.006;2023-08-06T03:50:02;100432.38;;;13.87;100.00
29417;BME280;28421;51.030;4.006;2023-08-06T03:52:28;100457.16;;;14.04;100.00
29417;BME280;28421;51.030;4.006;2023-08-06T03:54:53;100468.44;;;14.14;100.00
29417;BME280;28421;51.030;4.006;2023-08-06T03:57:19;100479.84;;;14.16;100.00
29417;BME280;28421;51.030;4.006;2023-08-06T03:59:44;100481.09;;;14.14;100.00
29417;BME280;28421;51.030;4.006;2023-08-06T04:02:10;100454.63;;;13.96;100.00
29417;BME280;28421;51.030;4.006;2023-08-06T04:04:35;100520.84;;;14.20;100.00
29417;BME280;28421;51.030;4.006;2023-08-06T04:07:01;100467.06;;;13.84;100.00
29417;BME280;28421;51.030;4.006;2023-08-06T04:09:28;100537.28;;;14.25;100.00
29417;BME280;28421;51.030;4.006;2023-08-06T04:11:54;100535.59;;;14.17;100.00
29417;BME280;28421;51.030;4.006;2023-08-06T04:14:20;100546.22;;;14.19;100.00
29417;BME280;28421;51.030;4.006;2023-08-06T04:16:45;100562.44;;;14.19;100.00
29417;BME280;28421;51.030;4.006;2023-08-06T04:19:11;100526.00;;;14.02;100.00
29417;BME280;28421;51.030;4.006;2023-08-06T04:21:36;100513.03;;;13.84;100.00
29417;BME280;28421;51.030;4.006;2023-08-06T04:24:03;100534.69;;;13.97;100.00
29417;BME280;28421;51.030;4.006;2023-08-06T04:26:29;100542.19;;;13.95;100.00
29417;BME280;28421;51.030;4.006;2023-08-06T04:28:54;100586.34;;;14.15;100.00
29417;BME280;28421;51.030;4.006;2023-08-06T04:31:21;100554.88;;;14.01;100.00
29417;BME280;28421;51.030;4.006;2023-08-06T04:33:47;100524.22;;;13.81;100.00
29417;BME280;28421;51.030;4.006;2023-08-06T04:36:14;100580.53;;;14.18;100.00
29417;BME280;28421;51.030;4.006;2023-08-06T04:38:39;100530.94;;;13.91;100.00
29417;BME280;28421;51.030;4.006;2023-08-06T04:41:09;100549.25;;;13.96;100.00
29417;BME280;28421;51.030;4.006;2023-08-06T04:43:35;100622.41;;;14.36;100.00
29417;BME280;28421;51.030;4.006;2023-08-06T04:46:00;100585.91;;;14.12;100.00
29417;BME280;28421;51.030;4.006;2023-08-06T04:48:26;100579.03;;;14.03;100.00
29417;BME280;28421;51.030;4.006;2023-08-06T04:50:51;100627.63;;;14.37;100.00
29417;BME280;28421;51.030;4.006;2023-08-06T04:53:17;100609.03;;;14.21;100.00
29417;BME280;28421;51.030;4.006;2023-08-06T04:55:42;100641.91;;;14.25;100.00
29417;BME280;28421;51.030;4.006;2023-08-06T04:58:12;100614.94;;;13.97;100.00
29417;BME280;28421;51.030;4.006;2023-08-06T05:00:38;100617.72;;;14.10;100.00
29417;BME280;28421;51.030;4.006;2023-08-06T05:03:03;100644.16;;;14.14;100.00
29417;BME280;28421;51.030;4.006;2023-08-06T05:05:29;100656.66;;;14.15;100.00
29417;BME280;28421;51.030;4.006;2023-08-06T05:07:56;100635.94;;;13.95;100.00
29417;BME280;28421;51.030;4.006;2023-08-06T05:10:24;100631.81;;;13.99;100.00
29417;BME280;28421;51.030;4.006;2023-08-06T05:12:50;100656.84;;;14.14;100.00
29417;BME280;28421;51.030;4.006;2023-08-06T05:15:15;100624.47;;;13.92;100.00
29417;BME280;28421;51.030;4.006;2023-08-06T05:17:41;100660.94;;;14.03;100.00
29417;BME280;28421;51.030;4.006;2023-08-06T05:20:07;100683.53;;;14.24;100.00
29417;BME280;28421;51.030;4.006;2023-08-06T05:22:32;100662.75;;;13.89;100.00
29417;BME280;28421;51.030;4.006;2023-08-06T05:24:58;100626.22;;;13.72;100.00
29417;BME280;28421;51.030;4.006;2023-08-06T05:27:23;100695.13;;;14.17;100.00
29417;BME280;28421;51.030;4.006;2023-08-06T05:29:48;100702.47;;;14.24;100.00
29417;BME280;28421;51.030;4.006;2023-08-06T05:32:14;100723.69;;;14.27;100.00
29417;BME280;28421;51.030;4.006;2023-08-06T05:34:39;100697.38;;;14.07;100.00
29417;BME280;28421;51.030;4.006;2023-08-06T05:37:07;100695.69;;;14.06;100.00
29417;BME280;28421;51.030;4.006;2023-08-06T05:39:32;100708.25;;;14.21;100.00
29417;BME280;28421;51.030;4.006;2023-08-06T05:41:58;100679.63;;;13.98;100.00
29417;BME280;28421;51.030;4.006;2023-08-06T05:44:23;100721.47;;;14.02;100.00
29417;BME280;28421;51.030;4.006;2023-08-06T05:46:49;100749.25;;;14.24;100.00
29417;BME280;28421;51.030;4.006;2023-08-06T05:49:15;100718.56;;;14.04;100.00
29417;BME280;28421;51.030;4.006;2023-08-06T05:51:41;100729.28;;;14.25;100.00
29417;BME280;28421;51.030;4.006;2023-08-06T05:54:07;100722.81;;;14.20;100.00
29417;BME280;28421;51.030;4.006;2023-08-06T05:56:32;100702.28;;;13.97;100.00
29417;BME280;28421;51.030;4.006;2023-08-06T05:58:58;100693.47;;;13.88;100.00
29417;BME280;28421;51.030;4.006;2023-08-06T06:01:23;100757.66;;;14.36;100.00
29417;BME280;28421;51.030;4.006;2023-08-06T06:03:49;100725.91;;;14.16;100.00
29417;BME280;28421;51.030;4.006;2023-08-06T06:06:14;100754.50;;;14.32;100.00
29417;BME280;28421;51.030;4.006;2023-08-06T06:08:40;100720.88;;;14.13;100.00
29417;BME280;28421;51.030;4.006;2023-08-06T06:11:06;100741.59;;;14.34;100.00
29417;BME280;28421;51.030;4.006;2023-08-06T06:13:31;100762.16;;;14.57;100.00
29417;BME280;28421;51.030;4.006;2023-08-06T06:15:56;100717.50;;;14.05;100.00
29417;BME280;28421;51.030;4.006;2023-08-06T06:18:22;100756.63;;;14.37;100.00
29417;BME280;28421;51.030;4.006;2023-08-06T06:20:48;100755.72;;;14.30;100.00
29417;BME280;28421;51.030;4.006;2023-08-06T06:23:13;100757.81;;;14.28;100.00
29417;BME280;28421;51.030;4.006;2023-08-06T06:25:43;100772.84;;;14.37;100.00
29417;BME280;28421;51.030;4.006;2023-08-06T06:28:09;100783.38;;;14.25;100.00
29417;BME280;28421;51.030;4.006;2023-08-06T06:30:34;100819.38;;;14.54;100.00
29417;BME280;28421;51.030;4.006;2023-08-06T06:33:00;100814.19;;;14.52;100.00
29417;BME280;28421;51.030;4.006;2023-08-06T06:35:25;100824.25;;;14.72;100.00
29417;BME280;28421;51.030;4.006;2023-08-06T06:37:51;100833.25;;;14.44;100.00
29417;BME280;28421;51.030;4.006;2023-08-06T06:40:17;100841.69;;;14.56;100.00
29417;BME280;28421;51.030;4.006;2023-08-06T06:42:42;100848.22;;;14.68;100.00
29417;BME280;28421;51.030;4.006;2023-08-06T06:45:09;100860.28;;;14.72;100.00
29417;BME280;28421;51.030;4.006;2023-08-06T06:47:34;100845.53;;;14.47;100.00
29417;BME280;28421;51.030;4.006;2023-08-06T06:50:00;100861.38;;;14.78;100.00
29417;BME280;28421;51.030;4.006;2023-08-06T06:52:26;100854.19;;;14.63;100.00
29417;BME280;28421;51.030;4.006;2023-08-06T06:54:51;100831.91;;;14.33;100.00
29417;BME280;28421;51.030;4.006;2023-08-06T06:57:17;100850.16;;;14.25;100.00
29417;BME280;28421;51.030;4.006;2023-08-06T06:59:42;100842.78;;;14.40;100.00
29417;BME280;28421;51.030;4.006;2023-08-06T07:02:08;100809.13;;;13.93;100.00
29417;BME280;28421;51.030;4.006;2023-08-06T07:04:33;100816.00;;;13.96;100.00
29417;BME280;28421;51.030;4.006;2023-08-06T07:06:58;100815.66;;;14.05;100.00
29417;BME280;28421;51.030;4.006;2023-08-06T07:09:24;100892.06;;;14.35;100.00
29417;BME280;28421;51.030;4.006;2023-08-06T07:11:50;100893.13;;;14.41;100.00
29417;BME280;28421;51.030;4.006;2023-08-06T07:14:17;100909.06;;;14.51;100.00
29417;BME280;28421;51.030;4.006;2023-08-06T07:16:42;100897.13;;;14.45;100.00
29417;BME280;28421;51.030;4.006;2023-08-06T07:19:08;100871.94;;;14.45;100.00
29417;BME280;28421;51.030;4.006;2023-08-06T07:21:33;100859.13;;;14.53;100.00
29417;BME280;28421;51.030;4.006;2023-08-06T07:23:59;100870.41;;;14.57;100.00
29417;BME280;28421;51.030;4.006;2023-08-06T07:26:25;100900.81;;;14.94;100.00
29417;BME280;28421;51.030;4.006;2023-08-06T07:28:50;100899.88;;;14.73;100.00
29417;BME280;28421;51.030;4.006;2023-08-06T07:31:16;100910.16;;;14.91;100.00
29417;BME280;28421;51.030;4.006;2023-08-06T07:33:41;100862.47;;;14.90;100.00
29417;BME280;28421;51.030;4.006;2023-08-06T07:36:11;100879.41;;;14.99;100.00
29417;BME280;28421;51.030;4.006;2023-08-06T07:38:36;100904.66;;;15.06;100.00
29417;BME280;28421;51.030;4.006;2023-08-06T07:41:03;100918.09;;;14.92;98.84
29417;BME280;28421;51.030;4.006;2023-08-06T07:43:28;100925.19;;;14.94;97.67
29417;BME280;28421;51.030;4.006;2023-08-06T07:45:54;100910.56;;;14.88;98.09
29417;BME280;28421;51.030;4.006;2023-08-06T07:48:19;100918.00;;;14.79;97.33
29417;BME280;28421;51.030;4.006;2023-08-06T07:50:45;100892.50;;;14.60;99.49
29417;BME280;28421;51.030;4.006;2023-08-06T07:53:15;100936.56;;;14.54;100.00
29417;BME280;28421;51.030;4.006;2023-08-06T07:55:41;100923.28;;;14.59;100.00
29417;BME280;28421;51.030;4.006;2023-08-06T07:58:07;100928.25;;;14.56;100.00
29417;BME280;28421;51.030;4.006;2023-08-06T08:00:33;100917.84;;;14.31;100.00
29417;BME280;28421;51.030;4.006;2023-08-06T08:02:58;100881.22;;;14.07;100.00
29417;BME280;28421;51.030;4.006;2023-08-06T08:05:24;100894.59;;;14.15;100.00
29417;BME280;28421;51.030;4.006;2023-08-06T08:07:49;100905.66;;;13.99;100.00
29417;BME280;28421;51.030;4.006;2023-08-06T08:10:15;100856.22;;;13.84;100.00
29417;BME280;28421;51.030;4.006;2023-08-06T08:12:41;100857.22;;;13.98;100.00
29417;BME280;28421;51.030;4.006;2023-08-06T08:15:08;100849.22;;;14.11;100.00
29417;BME280;28421;51.030;4.006;2023-08-06T08:17:33;100883.13;;;14.35;100.00
29417;BME280;28421;51.030;4.006;2023-08-06T08:20:01;100925.72;;;14.54;100.00
29417;BME280;28421;51.030;4.006;2023-08-06T08:22:28;100922.97;;;14.48;100.00
29417;BME280;28421;51.030;4.006;2023-08-06T08:24:58;100919.03;;;14.50;100.00
29417;BME280;28421;51.030;4.006;2023-08-06T08:27:25;100916.34;;;14.50;100.00
29417;BME280;28421;51.030;4.006;2023-08-06T08:29:51;100894.81;;;14.42;100.00
29417;BME280;28421;51.030;4.006;2023-08-06T08:32:26;100880.34;;;14.28;100.00
29417;BME280;28421;51.030;4.006;2023-08-06T08:34:57;100910.34;;;14.55;100.00
29417;BME280;28421;51.030;4.006;2023-08-06T08:37:38;100916.69;;;14.69;100.00
29417;BME280;28421;51.030;4.006;2023-08-06T08:40:06;100932.34;;;14.73;100.00
29417;BME280;28421;51.030;4.006;2023-08-06T08:42:31;100917.38;;;14.49;100.00
29417;BME280;28421;51.030;4.006;2023-08-06T08:44:57;100940.63;;;14.72;100.00
29417;BME280;28421;51.030;4.006;2023-08-06T08:47:24;100942.22;;;14.87;100.00
29417;BME280;28421;51.030;4.006;2023-08-06T08:49:52;100933.66;;;14.84;100.00
29417;BME280;28421;51.030;4.006;2023-08-06T08:52:21;100951.81;;;14.90;100.00
29417;BME280;28421;51.030;4.006;2023-08-06T08:54:47;100884.47;;;14.24;100.00
29417;BME280;28421;51.030;4.006;2023-08-06T08:57:17;100929.25;;;14.27;100.00
29417;BME280;28421;51.030;4.006;2023-08-06T09:00:09;100960.69;;;14.34;100.00
29417;BME280;28421;51.030;4.006;2023-08-06T09:02:48;100962.63;;;14.40;100.00
29417;BME280;28421;51.030;4.006;2023-08-06T09:19:48;100916.03;;;13.96;100.00
29417;BME280;28421;51.030;4.006;2023-08-06T09:22:15;100956.22;;;14.20;100.00
29417;BME280;28421;51.030;4.006;2023-08-06T09:24:43;100987.56;;;14.36;100.00
29417;BME280;28421;51.030;4.006;2023-08-06T09:27:13;100954.22;;;14.07;100.00
29417;BME280;28421;51.030;4.006;2023-08-06T09:29:43;100968.22;;;14.39;100.00
29417;BME280;28421;51.030;4.006;2023-08-06T09:32:09;100970.94;;;14.39;100.00
29417;BME280;28421;51.030;4.006;2023-08-06T09:34:34;100958.00;;;14.13;100.00
29417;BME280;28421;51.030;4.006;2023-08-06T09:37:00;100957.13;;;14.27;100.00
29417;BME280;28421;51.030;4.006;2023-08-06T09:39:29;100937.34;;;14.27;100.00
29417;BME280;28421;51.030;4.006;2023-08-06T09:41:57;101008.88;;;14.67;100.00
29417;BME280;28421;51.030;4.006;2023-08-06T09:44:25;100938.75;;;14.23;100.00
29417;BME280;28421;51.030;4.006;2023-08-06T09:46:53;101002.50;;;14.75;100.00
29417;BME280;28421;51.030;4.006;2023-08-06T09:49:21;101023.22;;;14.61;100.00
29417;BME280;28421;51.030;4.006;2023-08-06T09:51:47;100977.97;;;14.33;100.00
29417;BME280;28421;51.030;4.006;2023-08-06T09:54:16;101034.09;;;14.67;100.00
29417;BME280;28421;51.030;4.006;2023-08-06T09:56:43;100975.72;;;14.15;100.00
29417;BME280;28421;51.030;4.006;2023-08-06T09:59:09;101013.84;;;14.42;100.00
29417;BME280;28421;51.030;4.006;2023-08-06T10:01:36;101047.75;;;14.59;100.00
29417;BME280;28421;51.030;4.006;2023-08-06T10:04:04;101038.34;;;14.55;100.00
29417;BME280;28421;51.030;4.006;2023-08-06T10:06:33;101045.91;;;14.60;100.00
29417;BME280;28421;51.030;4.006;2023-08-06T10:08:59;101001.59;;;14.03;100.00
29417;BME280;28421;51.030;4.006;2023-08-06T10:11:24;101070.84;;;14.40;100.00
29417;BME280;28421;51.030;4.006;2023-08-06T10:13:58;101071.38;;;14.51;100.00
29417;BME280;28421;51.030;4.006;2023-08-06T10:16:25;101073.09;;;14.37;100.00
29417;BME280;28421;51.030;4.006;2023-08-06T10:18:53;101053.94;;;14.53;100.00
29417;BME280;28421;51.030;4.006;2023-08-06T10:21:19;101063.59;;;14.62;100.00
29417;BME280;28421;51.030;4.006;2023-08-06T10:23:53;101070.06;;;14.61;100.00
29417;BME280;28421;51.030;4.006;2023-08-06T10:26:19;101069.47;;;14.30;100.00
29417;BME280;28421;51.030;4.006;2023-08-06T10:28:45;101089.69;;;14.34;100.00
29417;BME280;28421;51.030;4.006;2023-08-06T10:31:10;101087.78;;;14.28;100.00
29417;BME280;28421;51.030;4.006;2023-08-06T10:37:18;101091.81;;;14.53;100.00
29417;BME280;28421;51.030;4.006;2023-08-06T10:39:49;101090.63;;;14.56;100.00
29417;BME280;28421;51.030;4.006;2023-08-06T10:42:36;101079.22;;;14.60;100.00
29417;BME280;28421;51.030;4.006;2023-08-06T10:48:49;101021.72;;;14.01;100.00
29417;BME280;28421;51.030;4.006;2023-08-06T10:51:22;101082.81;;;14.31;100.00
29417;BME280;28421;51.030;4.006;2023-08-06T10:53:59;101092.41;;;14.34;100.00
29417;BME280;28421;51.030;4.006;2023-08-06T10:57:11;101095.19;;;14.40;100.00
29417;BME280;28421;51.030;4.006;2023-08-06T11:00:18;101117.41;;;14.36;100.00
29417;BME280;28421;51.030;4.006;2023-08-06T11:05:56;101127.63;;;14.19;100.00
29417;BME280;28421;51.030;4.006;2023-08-06T11:08:46;101096.31;;;13.80;100.00
29417;BME280;28421;51.030;4.006;2023-08-06T11:11:39;101109.06;;;13.72;100.00
29417;BME280;28421;51.030;4.006;2023-08-06T11:14:30;101141.41;;;14.09;100.00
29417;BME280;28421;51.030;4.006;2023-08-06T11:17:08;101143.28;;;13.94;100.00
29417;BME280;28421;51.030;4.006;2023-08-06T11:19:34;101142.44;;;14.08;100.00
29417;BME280;28421;51.030;4.006;2023-08-06T11:22:10;101136.44;;;14.28;100.00
29417;BME280;28421;51.030;4.006;2023-08-06T11:24:57;101131.03;;;14.28;100.00
29417;BME280;28421;51.030;4.006;2023-08-06T11:30:32;101127.66;;;14.40;100.00
29417;BME280;28421;51.030;4.006;2023-08-06T11:33:32;101140.91;;;14.35;100.00
29417;BME280;28421;51.030;4.006;2023-08-06T11:39:29;101110.38;;;14.41;100.00
29417;BME280;28421;51.030;4.006;2023-08-06T11:48:55;101143.06;;;15.19;100.00
29417;BME280;28421;51.030;4.006;2023-08-06T11:51:25;101114.44;;;14.88;100.00
29417;BME280;28421;51.030;4.006;2023-08-06T11:53:57;101132.69;;;15.01;100.00
29417;BME280;28421;51.030;4.006;2023-08-06T11:56:37;101127.22;;;14.95;100.00
29417;BME280;28421;51.030;4.006;2023-08-06T12:07:06;101162.84;;;15.20;100.00
29417;BME280;28421;51.030;4.006;2023-08-06T12:09:35;101170.00;;;14.84;100.00
29417;BME280;28421;51.030;4.006;2023-08-06T12:12:01;101167.69;;;14.81;100.00
29417;BME280;28421;51.030;4.006;2023-08-06T12:14:28;101166.00;;;14.80;100.00
29417;BME280;28421;51.030;4.006;2023-08-06T12:16:54;101177.13;;;14.85;100.00
29417;BME280;28421;51.030;4.006;2023-08-06T12:19:20;101156.28;;;14.86;100.00
29417;BME280;28421;51.030;4.006;2023-08-06T12:21:46;101125.84;;;14.84;100.00
29417;BME280;28421;51.030;4.006;2023-08-06T12:24:12;101115.69;;;14.86;99.90
29417;BME280;28421;51.030;4.006;2023-08-06T12:26:38;101155.84;;;15.04;99.40
29417;BME280;28421;51.030;4.006;2023-08-06T12:29:04;101160.22;;;15.05;99.25
29417;BME280;28421;51.030;4.006;2023-08-06T12:31:29;101155.13;;;14.95;100.00
29417;BME280;28421;51.030;4.006;2023-08-06T12:33:55;101156.16;;;14.94;100.00
29417;BME280;28421;51.030;4.006;2023-08-06T12:36:21;101140.78;;;14.58;100.00
29417;BME280;28421;51.030;4.006;2023-08-06T12:38:46;101116.84;;;14.40;100.00
29417;BME280;28421;51.030;4.006;2023-08-06T12:41:12;101175.34;;;14.78;100.00
29417;BME280;28421;51.030;4.006;2023-08-06T12:43:37;101167.34;;;14.70;100.00
29417;BME280;28421;51.030;4.006;2023-08-06T12:46:02;101194.69;;;14.75;96.30
29417;BME280;28421;51.030;4.006;2023-08-06T12:48:28;101174.28;;;14.57;98.47
29417;BME280;28421;51.030;4.006;2023-08-06T12:50:54;101205.03;;;14.71;95.81
29417;BME280;28421;51.030;4.006;2023-08-06T12:53:19;101185.50;;;14.54;96.59
29417;BME280;28421;51.030;4.006;2023-08-06T12:55:47;101175.53;;;14.40;96.84
29417;BME280;28421;51.030;4.006;2023-08-06T12:58:12;101150.44;;;14.16;98.94
29417;BME280;28421;51.030;4.006;2023-08-06T13:00:38;101223.38;;;14.54;99.55
29417;BME280;28421;51.030;4.006;2023-08-06T13:03:03;101175.72;;;14.09;99.06
29417;BME280;28421;51.030;4.006;2023-08-06T13:05:29;101199.97;;;14.17;100.00
29417;BME280;28421;51.030;4.006;2023-08-06T13:07:54;101224.31;;;14.32;100.00
29417;BME280;28421;51.030;4.006;2023-08-06T13:10:20;101172.94;;;14.02;100.00
29417;BME280;28421;51.030;4.006;2023-08-06T13:12:46;101228.50;;;14.20;100.00
29417;BME280;28421;51.030;4.006;2023-08-06T13:15:11;101186.34;;;13.96;100.00
29417;BME280;28421;51.030;4.006;2023-08-06T13:17:39;101234.19;;;13.95;100.00
29417;BME280;28421;51.030;4.006;2023-08-06T13:20:05;101231.16;;;13.75;100.00
29417;BME280;28421;51.030;4.006;2023-08-06T13:22:31;101202.44;;;13.59;100.00
29417;BME280;28421;51.030;4.006;2023-08-06T13:24:56;101244.25;;;13.86;100.00
29417;BME280;28421;51.030;4.006;2023-08-06T13:27:22;101270.72;;;14.06;100.00
29417;BME280;28421;51.030;4.006;2023-08-06T13:29:47;101257.59;;;14.03;100.00